Time;durP1;ratioP1;P1;durP2;ratioP2;P2;SDS_P1;SDS_P2;PMS_P1;PMS_P2;Temp;Humidity;BMP_temperature;BMP_pressure;BME280_temperature;BME280_humidity;BME280_pressure;Samples;Min_cycle;Max_cycle;Signal;HPM_P1;HPM_P2
2022/10/14 00:00:41;;;;;;;;;;;25.50;88.00;;;;;;5040004;28;19963;-74
2022/10/14 00:03:08;;;;;;;;;;;26.00;87.00;;;;;;5043762;28;19989;-77
2022/10/14 00:05:38;;;;;;;;;;;26.30;84.70;;;;;;5044392;28;19920;-79
2022/10/14 00:08:05;;;;;;;;;;;26.80;83.70;;;;;;5044996;28;19962;-80
2022/10/14 00:10:32;;;;;;;;;;;26.80;84.50;;;;;;5041173;28;19972;-78
2022/10/14 00:12:58;;;;;;;;;;;26.60;83.90;;;;;;5022037;28;19929;-77
2022/10/14 00:15:25;;;;;;;;;;;26.70;84.60;;;;;;5051648;28;20347;-77
2022/10/14 00:17:51;;;;;;;;;;;27.00;83.20;;;;;;5049486;28;20512;-75
2022/10/14 00:20:18;;;;;;;;;;;27.00;82.70;;;;;;5049294;28;19913;-78
2022/10/14 00:22:45;;;;;;;;;;;27.00;83.50;;;;;;5050295;28;19913;-77
2022/10/14 00:25:11;;;;;;;;;;;26.60;83.00;;;;;;5049087;28;19963;-76
2022/10/14 00:27:38;;;;;;;;;;;26.80;80.80;;;;;;5049914;28;19920;-76
2022/10/14 00:30:05;;;;;;;;;;;27.00;81.80;;;;;;5047755;28;19913;-75
2022/10/14 00:32:32;;;;;;;;;;;26.90;81.00;;;;;;5047587;28;19920;-76
2022/10/14 00:34:58;;;;;;;;;;;26.60;81.20;;;;;;5047141;28;20023;-75
2022/10/14 00:37:25;;;;;;;;;;;26.60;80.20;;;;;;5049118;28;19967;-75
2022/10/14 00:39:52;;;;;;;;;;;26.80;81.70;;;;;;5045699;28;19920;-76
2022/10/14 00:42:18;;;;;;;;;;;26.50;79.80;;;;;;5050637;28;19917;-76
2022/10/14 00:44:45;;;;;;;;;;;26.50;80.50;;;;;;5050102;28;20017;-76
2022/10/14 00:47:12;;;;;;;;;;;26.30;80.80;;;;;;5048787;28;20622;-76
2022/10/14 00:49:41;;;;;;;;;;;26.40;80.00;;;;;;5050631;28;20359;-78
2022/10/14 00:52:11;;;;;;;;;;;26.70;78.90;;;;;;5039200;28;20011;-77
2022/10/14 00:54:40;;;;;;;;;;;26.90;79.00;;;;;;5049845;28;20007;-76
2022/10/14 00:57:08;;;;;;;;;;;27.10;78.40;;;;;;5048795;28;19993;-77
2022/10/14 00:59:35;;;;;;;;;;;26.70;79.80;;;;;;5047932;28;20039;-76
2022/10/14 01:02:02;;;;;;;;;;;26.80;78.80;;;;;;5048992;28;19924;-76
2022/10/14 01:04:29;;;;;;;;;;;26.40;77.30;;;;;;5045053;28;19974;-77
2022/10/14 01:07:03;;;;;;;;;;;26.30;78.50;;;;;;5050811;28;19913;-78
2022/10/14 01:09:38;;;;;;;;;;;26.30;77.90;;;;;;5029154;28;20004;-76
2022/10/14 01:12:05;;;;;;;;;;;26.10;78.70;;;;;;5046329;28;20449;-78
2022/10/14 01:14:37;;;;;;;;;;;26.50;79.60;;;;;;5048727;28;19913;-75
2022/10/14 01:17:16;;;;;;;;;;;26.60;77.90;;;;;;5048447;28;19924;-75
2022/10/14 01:19:52;;;;;;;;;;;27.20;78.20;;;;;;5046354;28;20270;-76
2022/10/14 01:22:26;;;;;;;;;;;27.80;76.70;;;;;;5045889;28;19921;-76
2022/10/14 01:25:02;;;;;;;;;;;27.40;76.20;;;;;;5043639;28;19929;-78
2022/10/14 01:27:35;;;;;;;;;;;27.70;76.00;;;;;;5037786;28;20004;-77
2022/10/14 01:30:01;;;;;;;;;;;27.60;73.60;;;;;;5059555;28;20268;-75
2022/10/14 01:32:39;;;;;;;;;;;27.50;72.80;;;;;;5045771;28;19913;-78
2022/10/14 01:35:24;;;;;;;;;;;27.30;71.20;;;;;;5049544;28;19963;-76
2022/10/14 01:37:53;;;;;;;;;;;26.80;71.00;;;;;;5046274;28;19920;-78
2022/10/14 01:40:24;;;;;;;;;;;26.70;72.90;;;;;;5032020;28;20345;-78
2022/10/14 01:42:51;;;;;;;;;;;27.00;72.40;;;;;;5046213;28;19946;-76
2022/10/14 01:45:20;;;;;;;;;;;27.00;70.60;;;;;;5049081;28;19917;-77
2022/10/14 01:47:48;;;;;;;;;;;27.30;73.50;;;;;;5048041;28;20577;-77
2022/10/14 01:50:16;;;;;;;;;;;27.50;71.30;;;;;;5046795;28;19967;-78
2022/10/14 01:52:46;;;;;;;;;;;27.70;71.40;;;;;;5047794;28;20012;-77
2022/10/14 01:55:16;;;;;;;;;;;28.00;71.70;;;;;;5045556;28;19913;-78
2022/10/14 01:57:44;;;;;;;;;;;27.90;70.30;;;;;;5043185;28;19947;-75
2022/10/14 02:00:10;;;;;;;;;;;28.10;70.60;;;;;;5044771;28;19913;-76
2022/10/14 02:02:38;;;;;;;;;;;28.00;69.40;;;;;;5044145;28;19994;-76
2022/10/14 02:05:08;;;;;;;;;;;28.30;71.00;;;;;;5041433;28;19917;-77
2022/10/14 02:07:39;;;;;;;;;;;28.10;66.40;;;;;;5049413;28;19921;-78
2022/10/14 02:10:21;;;;;;;;;;;27.60;67.50;;;;;;5046573;28;19959;-77
2022/10/14 02:12:53;;;;;;;;;;;27.00;68.70;;;;;;5044735;28;19913;-76
2022/10/14 02:15:20;;;;;;;;;;;27.10;72.00;;;;;;5053081;28;19943;-78
2022/10/14 02:17:47;;;;;;;;;;;27.10;70.50;;;;;;5048108;28;19920;-78
2022/10/14 02:20:19;;;;;;;;;;;27.40;69.60;;;;;;5040171;28;19921;-78
2022/10/14 02:22:51;;;;;;;;;;;27.30;70.50;;;;;;5042164;28;19913;-79
2022/10/14 02:25:30;;;;;;;;;;;27.50;67.60;;;;;;5041958;28;19948;-79
2022/10/14 02:27:57;;;;;;;;;;;27.70;65.20;;;;;;5048890;28;20046;-79
2022/10/14 02:30:25;;;;;;;;;;;28.10;65.90;;;;;;5048938;28;19913;-80
2022/10/14 02:32:55;;;;;;;;;;;28.50;63.70;;;;;;5046860;28;19909;-78
2022/10/14 02:35:23;;;;;;;;;;;28.60;60.40;;;;;;5041854;28;19936;-78
2022/10/14 02:37:51;;;;;;;;;;;28.40;61.00;;;;;;5043735;28;19925;-79
2022/10/14 02:40:21;;;;;;;;;;;28.30;61.40;;;;;;5044511;28;19967;-78
2022/10/14 02:42:47;;;;;;;;;;;28.20;62.00;;;;;;5043292;28;19966;-77
2022/10/14 02:45:15;;;;;;;;;;;28.20;61.90;;;;;;5042250;28;20007;-78
2022/10/14 02:47:42;;;;;;;;;;;28.30;62.70;;;;;;5038739;28;19943;-79
2022/10/14 02:50:09;;;;;;;;;;;28.50;61.00;;;;;;5045131;28;20394;-78
2022/10/14 02:52:35;;;;;;;;;;;28.60;59.90;;;;;;5045263;28;20282;-78
2022/10/14 02:55:02;;;;;;;;;;;28.60;59.40;;;;;;5045312;28;19917;-76
2022/10/14 02:57:29;;;;;;;;;;;28.40;60.30;;;;;;5041834;28;19925;-78
2022/10/14 02:59:55;;;;;;;;;;;28.40;60.90;;;;;;5045958;28;19985;-78
2022/10/14 03:02:22;;;;;;;;;;;28.30;60.40;;;;;;5040000;28;20409;-75
2022/10/14 03:04:49;;;;;;;;;;;28.10;59.90;;;;;;5037842;28;19913;-75
2022/10/14 03:07:15;;;;;;;;;;;27.90;60.40;;;;;;5039816;28;19923;-75
2022/10/14 03:09:42;;;;;;;;;;;27.70;60.10;;;;;;5040142;28;19921;-74
2022/10/14 03:12:09;;;;;;;;;;;27.20;60.70;;;;;;5041388;28;19924;-75
2022/10/14 03:14:35;;;;;;;;;;;26.30;61.90;;;;;;5041569;28;19917;-74
2022/10/14 03:17:02;;;;;;;;;;;26.60;63.60;;;;;;5046502;28;19925;-76
2022/10/14 03:19:29;;;;;;;;;;;27.10;62.00;;;;;;5041827;28;21459;-76
2022/10/14 03:21:55;;;;;;;;;;;27.20;63.40;;;;;;5040373;28;19912;-77
2022/10/14 03:24:22;;;;;;;;;;;27.20;62.30;;;;;;5038915;28;19924;-78
2022/10/14 03:26:49;;;;;;;;;;;26.30;62.00;;;;;;5042829;28;20576;-78
2022/10/14 03:29:16;;;;;;;;;;;26.00;63.60;;;;;;5038981;28;19920;-76
2022/10/14 03:31:42;;;;;;;;;;;26.40;64.60;;;;;;5056022;28;20404;-75
2022/10/14 03:34:09;;;;;;;;;;;27.20;63.50;;;;;;5040761;28;20363;-78
2022/10/14 03:36:36;;;;;;;;;;;27.70;63.70;;;;;;5048215;28;19977;-78
2022/10/14 03:39:02;;;;;;;;;;;28.10;63.00;;;;;;5046411;28;19924;-77
2022/10/14 03:41:29;;;;;;;;;;;28.40;62.30;;;;;;5044527;28;20041;-78
2022/10/14 03:43:56;;;;;;;;;;;28.30;61.90;;;;;;5044289;28;19913;-78
2022/10/14 03:46:23;;;;;;;;;;;27.40;62.60;;;;;;5049651;28;20382;-76
2022/10/14 03:48:49;;;;;;;;;;;26.80;64.10;;;;;;5040173;28;20289;-75
2022/10/14 03:51:16;;;;;;;;;;;26.90;65.20;;;;;;5045317;28;19959;-77
2022/10/14 03:53:42;;;;;;;;;;;27.20;64.30;;;;;;5048070;28;19947;-77
2022/10/14 03:56:09;;;;;;;;;;;27.70;63.50;;;;;;5052936;28;19979;-77
2022/10/14 03:58:36;;;;;;;;;;;27.90;63.00;;;;;;5045754;28;19917;-75
2022/10/14 04:01:02;;;;;;;;;;;28.00;63.00;;;;;;5045262;28;20106;-76
2022/10/14 04:03:29;;;;;;;;;;;28.00;64.80;;;;;;5042494;28;19983;-76
2022/10/14 04:05:56;;;;;;;;;;;28.10;64.50;;;;;;5049841;28;19966;-75
2022/10/14 04:08:22;;;;;;;;;;;28.20;65.40;;;;;;5045561;28;19912;-75
2022/10/14 04:10:53;;;;;;;;;;;28.30;64.30;;;;;;5046141;28;20354;-76
2022/10/14 04:13:20;;;;;;;;;;;28.40;65.20;;;;;;5050470;28;19921;-77
2022/10/14 04:15:47;;;;;;;;;;;28.60;64.60;;;;;;5053302;28;19916;-76
2022/10/14 04:18:14;;;;;;;;;;;28.70;63.40;;;;;;5053344;28;19917;-77
2022/10/14 04:20:40;;;;;;;;;;;28.50;63.50;;;;;;5041280;28;19986;-79
2022/10/14 04:23:07;;;;;;;;;;;28.50;63.40;;;;;;5041814;28;19916;-76
2022/10/14 04:25:36;;;;;;;;;;;28.00;62.30;;;;;;5048628;28;19927;-74
2022/10/14 04:28:03;;;;;;;;;;;27.40;62.60;;;;;;5043389;28;20011;-74
2022/10/14 04:30:30;;;;;;;;;;;26.80;63.50;;;;;;5046067;28;20306;-75
2022/10/14 04:32:56;;;;;;;;;;;26.80;62.70;;;;;;5046060;28;19925;-79
2022/10/14 04:35:23;;;;;;;;;;;26.80;62.90;;;;;;5029494;28;19912;-77
2022/10/14 04:37:59;;;;;;;;;;;26.80;64.40;;;;;;5046775;28;20362;-77
2022/10/14 04:40:25;;;;;;;;;;;27.00;66.10;;;;;;5046976;28;19916;-80
2022/10/14 04:42:56;;;;;;;;;;;27.30;64.50;;;;;;5047926;28;20011;-79
2022/10/14 04:45:23;;;;;;;;;;;27.30;62.50;;;;;;5048116;28;19913;-77
2022/10/14 04:47:50;;;;;;;;;;;27.40;63.40;;;;;;5040586;28;20325;-77
2022/10/14 04:50:17;;;;;;;;;;;27.30;63.30;;;;;;5040858;28;20430;-75
2022/10/14 04:52:43;;;;;;;;;;;26.50;63.70;;;;;;5041803;28;19982;-78
2022/10/14 04:55:11;;;;;;;;;;;26.50;64.60;;;;;;5040061;28;20020;-77
2022/10/14 04:57:42;;;;;;;;;;;26.70;63.70;;;;;;5037336;28;20015;-77
2022/10/14 05:00:11;;;;;;;;;;;26.30;62.50;;;;;;5039905;28;19917;-75
2022/10/14 05:02:37;;;;;;;;;;;26.20;63.90;;;;;;5042064;28;20240;-75
2022/10/14 05:05:05;;;;;;;;;;;26.20;64.10;;;;;;5036715;28;20359;-78
2022/10/14 05:07:32;;;;;;;;;;;25.70;63.40;;;;;;5040898;28;19998;-77
2022/10/14 05:09:59;;;;;;;;;;;25.20;64.60;;;;;;5043236;28;19917;-75
2022/10/14 05:12:27;;;;;;;;;;;25.20;64.80;;;;;;5040902;28;21672;-76
2022/10/14 05:14:54;;;;;;;;;;;24.90;64.80;;;;;;5044173;28;19930;-77
2022/10/14 05:17:21;;;;;;;;;;;24.60;65.60;;;;;;5037981;28;19974;-78
2022/10/14 05:19:48;;;;;;;;;;;24.80;65.80;;;;;;5042244;28;20003;-76
2022/10/14 05:22:14;;;;;;;;;;;24.80;65.20;;;;;;5041683;28;19929;-76
2022/10/14 05:24:44;;;;;;;;;;;24.60;66.00;;;;;;5047257;28;19924;-77
2022/10/14 05:27:11;;;;;;;;;;;24.40;65.40;;;;;;5048491;28;19920;-78
2022/10/14 05:29:37;;;;;;;;;;;24.50;66.70;;;;;;5042789;28;19921;-80
2022/10/14 05:32:04;;;;;;;;;;;24.40;66.60;;;;;;5038454;28;19955;-78
2022/10/14 05:34:31;;;;;;;;;;;24.40;67.40;;;;;;5041458;28;19920;-79
2022/10/14 05:36:58;;;;;;;;;;;24.60;67.50;;;;;;5044898;28;20023;-75
2022/10/14 05:39:24;;;;;;;;;;;24.80;67.00;;;;;;5037956;28;19965;-77
2022/10/14 05:41:51;;;;;;;;;;;24.90;65.90;;;;;;5035326;28;22131;-80
2022/10/14 05:44:18;;;;;;;;;;;24.80;66.60;;;;;;5040374;28;19959;-77
2022/10/14 05:46:44;;;;;;;;;;;24.30;66.90;;;;;;5046174;28;19913;-76
2022/10/14 05:49:11;;;;;;;;;;;24.00;67.80;;;;;;5041350;28;19912;-76
2022/10/14 05:51:38;;;;;;;;;;;23.70;67.90;;;;;;5037788;28;19921;-77
2022/10/14 05:54:05;;;;;;;;;;;23.50;68.30;;;;;;5035775;28;19983;-78
2022/10/14 05:56:31;;;;;;;;;;;23.50;69.00;;;;;;5045075;28;19921;-76
2022/10/14 05:58:58;;;;;;;;;;;23.40;69.20;;;;;;5041472;28;19978;-77
2022/10/14 06:01:25;;;;;;;;;;;23.50;69.70;;;;;;5019496;28;19975;-74
2022/10/14 06:03:52;;;;;;;;;;;23.70;69.80;;;;;;5042187;28;19917;-74
2022/10/14 06:06:19;;;;;;;;;;;24.00;69.90;;;;;;5042069;28;20291;-73
2022/10/14 06:08:45;;;;;;;;;;;24.20;70.90;;;;;;5047755;28;19913;-77
2022/10/14 06:11:12;;;;;;;;;;;24.30;70.30;;;;;;5042473;28;20418;-75
2022/10/14 06:13:39;;;;;;;;;;;24.50;70.50;;;;;;5035630;28;19921;-75
2022/10/14 06:16:08;;;;;;;;;;;24.60;70.20;;;;;;5041289;28;19920;-75
2022/10/14 06:18:35;;;;;;;;;;;24.60;69.70;;;;;;5035982;28;20387;-76
2022/10/14 06:21:02;;;;;;;;;;;24.50;70.00;;;;;;5040976;28;19928;-73
2022/10/14 06:23:29;;;;;;;;;;;24.50;70.50;;;;;;5039466;28;20008;-74
2022/10/14 06:25:56;;;;;;;;;;;24.30;70.70;;;;;;5042612;28;19920;-76
2022/10/14 06:28:23;;;;;;;;;;;24.20;71.70;;;;;;5037186;28;19923;-75
2022/10/14 06:30:53;;;;;;;;;;;24.20;71.60;;;;;;5038413;28;19924;-73
2022/10/14 06:33:20;;;;;;;;;;;24.10;71.70;;;;;;5037430;28;19917;-74
2022/10/14 06:35:47;;;;;;;;;;;24.10;71.80;;;;;;5034891;28;19917;-76
2022/10/14 06:38:14;;;;;;;;;;;23.90;72.80;;;;;;5038569;28;20007;-77
2022/10/14 06:40:41;;;;;;;;;;;23.70;72.80;;;;;;5047213;28;19912;-77
2022/10/14 06:43:08;;;;;;;;;;;23.40;73.00;;;;;;5022960;28;19916;-75
2022/10/14 06:45:34;;;;;;;;;;;23.20;74.20;;;;;;5041009;28;20043;-76
2022/10/14 06:48:03;;;;;;;;;;;23.10;74.80;;;;;;5040765;28;19916;-76
2022/10/14 06:50:29;;;;;;;;;;;23.10;74.40;;;;;;5042679;28;19923;-75
2022/10/14 06:52:56;;;;;;;;;;;23.10;75.30;;;;;;5041416;28;19966;-76
2022/10/14 06:55:23;;;;;;;;;;;23.20;75.10;;;;;;5040764;28;19920;-75
2022/10/14 06:57:49;;;;;;;;;;;23.30;75.80;;;;;;5037487;28;19978;-76
2022/10/14 07:00:16;;;;;;;;;;;23.40;75.30;;;;;;5041500;28;19917;-75
2022/10/14 07:02:43;;;;;;;;;;;23.20;75.20;;;;;;5035956;28;19921;-76
2022/10/14 07:05:10;;;;;;;;;;;23.20;75.60;;;;;;5042599;28;19945;-76
2022/10/14 07:07:37;;;;;;;;;;;23.10;75.10;;;;;;5044386;28;19922;-76
2022/10/14 07:10:03;;;;;;;;;;;22.90;75.70;;;;;;5043482;28;19939;-76
2022/10/14 07:12:30;;;;;;;;;;;22.80;74.10;;;;;;5040758;28;20563;-77
2022/10/14 07:14:57;;;;;;;;;;;22.60;73.70;;;;;;5039670;28;19975;-76
2022/10/14 07:17:24;;;;;;;;;;;22.50;73.40;;;;;;5040012;28;20367;-76
2022/10/14 07:19:50;;;;;;;;;;;22.30;74.10;;;;;;5040477;28;20440;-76
2022/10/14 07:22:17;;;;;;;;;;;22.20;75.00;;;;;;5045131;28;19913;-76
2022/10/14 07:24:44;;;;;;;;;;;22.10;75.10;;;;;;5043041;28;19921;-75
2022/10/14 07:27:11;;;;;;;;;;;21.90;75.50;;;;;;5040657;28;20290;-75
2022/10/14 07:29:37;;;;;;;;;;;21.80;75.80;;;;;;5042020;28;20278;-75
2022/10/14 07:32:04;;;;;;;;;;;21.70;76.20;;;;;;5048499;28;20437;-77
2022/10/14 07:34:33;;;;;;;;;;;21.50;76.80;;;;;;5046996;28;19913;-76
2022/10/14 07:36:59;;;;;;;;;;;21.40;76.50;;;;;;5044416;28;20378;-75
2022/10/14 07:39:27;;;;;;;;;;;21.30;76.60;;;;;;5049191;28;19913;-76
2022/10/14 07:41:54;;;;;;;;;;;21.20;76.90;;;;;;5046097;28;19971;-74
2022/10/14 07:44:21;;;;;;;;;;;21.10;77.60;;;;;;5047674;28;19917;-76
2022/10/14 07:46:47;;;;;;;;;;;20.90;77.80;;;;;;5050906;28;20362;-76
2022/10/14 07:49:15;;;;;;;;;;;20.90;78.40;;;;;;5048491;28;19967;-75
2022/10/14 07:51:42;;;;;;;;;;;20.80;79.30;;;;;;5052911;28;19917;-76
2022/10/14 07:54:12;;;;;;;;;;;20.70;79.70;;;;;;5043538;28;19970;-76
2022/10/14 07:56:40;;;;;;;;;;;20.50;79.80;;;;;;5045410;28;20007;-74
2022/10/14 07:59:07;;;;;;;;;;;20.40;80.10;;;;;;5047956;28;19917;-76
2022/10/14 08:01:34;;;;;;;;;;;20.30;80.70;;;;;;5042957;28;19962;-76
2022/10/14 08:04:00;;;;;;;;;;;20.20;81.00;;;;;;5045918;28;19913;-76
2022/10/14 08:06:27;;;;;;;;;;;20.10;81.30;;;;;;5046018;28;19921;-77
2022/10/14 08:08:54;;;;;;;;;;;20.00;81.90;;;;;;5043219;28;20367;-75
2022/10/14 08:11:22;;;;;;;;;;;19.90;82.90;;;;;;5045126;28;19960;-76
2022/10/14 08:13:49;;;;;;;;;;;19.80;83.70;;;;;;5041693;28;19925;-76
2022/10/14 08:16:17;;;;;;;;;;;19.60;83.60;;;;;;5044109;28;19921;-75
2022/10/14 08:18:44;;;;;;;;;;;19.60;83.70;;;;;;5039732;28;19917;-76
2022/10/14 08:21:11;;;;;;;;;;;19.50;83.60;;;;;;5042874;28;20003;-75
2022/10/14 08:23:38;;;;;;;;;;;19.40;83.80;;;;;;5042472;28;22084;-77
2022/10/14 08:26:15;;;;;;;;;;;19.30;84.10;;;;;;5042209;28;20015;-77
2022/10/14 08:28:41;;;;;;;;;;;19.20;84.10;;;;;;5041331;28;19916;-75
2022/10/14 08:31:08;;;;;;;;;;;19.20;84.80;;;;;;5041287;28;20311;-76
2022/10/14 08:33:34;;;;;;;;;;;19.10;85.30;;;;;;5040579;28;19924;-75
2022/10/14 08:36:01;;;;;;;;;;;19.00;85.80;;;;;;5046402;28;19924;-77
2022/10/14 08:38:28;;;;;;;;;;;18.90;85.90;;;;;;5044486;28;19917;-75
2022/10/14 08:41:24;;;;;;;;;;;18.80;85.90;;;;;;5038737;28;19913;-77
2022/10/14 08:44:17;;;;;;;;;;;18.80;86.10;;;;;;5028110;28;20333;-77
2022/10/14 08:46:46;;;;;;;;;;;18.70;86.70;;;;;;5041631;28;19921;-75
2022/10/14 08:49:13;;;;;;;;;;;18.70;87.20;;;;;;5041016;28;20763;-75
2022/10/14 08:51:42;;;;;;;;;;;18.60;87.20;;;;;;5044861;28;19929;-78
2022/10/14 08:54:11;;;;;;;;;;;18.50;87.50;;;;;;5046475;28;19919;-76
2022/10/14 08:56:38;;;;;;;;;;;18.50;87.50;;;;;;5051064;28;19929;-78
2022/10/14 08:59:15;;;;;;;;;;;18.40;87.60;;;;;;5049030;28;19928;-78
2022/10/14 09:01:50;;;;;;;;;;;18.40;87.80;;;;;;5043262;28;19923;-77
2022/10/14 09:04:17;;;;;;;;;;;18.30;87.90;;;;;;5043686;28;20015;-76
2022/10/14 09:06:46;;;;;;;;;;;18.20;88.00;;;;;;5043590;28;19917;-78
2022/10/14 09:09:27;;;;;;;;;;;18.20;88.00;;;;;;5042622;28;20032;-77
2022/10/14 09:11:59;;;;;;;;;;;18.20;88.50;;;;;;5044195;28;19920;-81
2022/10/14 09:14:30;;;;;;;;;;;18.20;88.50;;;;;;5046373;28;19917;-80
2022/10/14 09:17:05;;;;;;;;;;;18.10;89.30;;;;;;5045252;28;19928;-77
2022/10/14 09:19:35;;;;;;;;;;;18.10;89.30;;;;;;5043964;28;20343;-78
2022/10/14 09:22:01;;;;;;;;;;;18.00;89.40;;;;;;5043355;28;19917;-77
2022/10/14 09:24:31;;;;;;;;;;;17.90;89.50;;;;;;5046740;28;19931;-79
2022/10/14 09:27:20;;;;;;;;;;;17.90;89.80;;;;;;5049852;28;19916;-76
2022/10/14 09:29:52;;;;;;;;;;;17.80;90.00;;;;;;5048634;28;20294;-78
2022/10/14 09:32:30;;;;;;;;;;;17.70;90.10;;;;;;5043238;28;19924;-78
2022/10/14 09:34:57;;;;;;;;;;;17.70;90.10;;;;;;5043020;28;19955;-77
2022/10/14 09:37:28;;;;;;;;;;;17.70;90.10;;;;;;5042513;28;20583;-79
2022/10/14 09:39:57;;;;;;;;;;;17.70;90.00;;;;;;5043448;28;20016;-79
2022/10/14 09:42:37;;;;;;;;;;;17.70;90.00;;;;;;5044155;28;19917;-79
2022/10/14 09:45:12;;;;;;;;;;;17.70;90.10;;;;;;5047075;28;20467;-81
2022/10/14 09:47:58;;;;;;;;;;;17.60;90.10;;;;;;5042465;28;19931;-78
2022/10/14 09:50:28;;;;;;;;;;;17.60;90.10;;;;;;5043035;28;20292;-78
2022/10/14 09:53:00;;;;;;;;;;;17.60;89.90;;;;;;5044353;28;19913;-77
2022/10/14 09:55:27;;;;;;;;;;;17.50;90.00;;;;;;5043181;28;19917;-78
2022/10/14 09:57:57;;;;;;;;;;;17.50;90.20;;;;;;5041622;28;19921;-77
2022/10/14 10:00:28;;;;;;;;;;;17.40;90.00;;;;;;5048414;28;19917;-77
2022/10/14 10:02:55;;;;;;;;;;;17.40;90.00;;;;;;5042409;28;20435;-77
2022/10/14 10:05:27;;;;;;;;;;;17.40;90.10;;;;;;5041541;28;19942;-78
2022/10/14 10:08:05;;;;;;;;;;;17.40;90.10;;;;;;5038255;28;20375;-78
2022/10/14 10:10:34;;;;;;;;;;;17.30;90.20;;;;;;5023254;28;20864;-78
2022/10/14 10:13:01;;;;;;;;;;;17.30;90.30;;;;;;5022022;28;20046;-77
2022/10/14 10:15:28;;;;;;;;;;;17.20;90.40;;;;;;5026390;28;19925;-77
2022/10/14 10:17:55;;;;;;;;;;;17.20;90.40;;;;;;5022949;28;19925;-79
2022/10/14 10:20:27;;;;;;;;;;;17.20;90.40;;;;;;5022548;28;20342;-77
2022/10/14 10:22:55;;;;;;;;;;;17.10;90.10;;;;;;5017126;28;20367;-78
2022/10/14 10:25:25;;;;;;;;;;;17.10;90.40;;;;;;5021291;28;19952;-77
2022/10/14 10:27:53;;;;;;;;;;;17.00;90.40;;;;;;5019261;28;21565;-77
2022/10/14 10:30:26;;;;;;;;;;;17.00;90.50;;;;;;5027473;28;19916;-78
2022/10/14 10:32:53;;;;;;;;;;;16.90;90.50;;;;;;5042261;28;20023;-76
2022/10/14 10:35:28;;;;;;;;;;;16.80;90.60;;;;;;5042983;28;20007;-77
2022/10/14 10:38:12;;;;;;;;;;;16.80;90.40;;;;;;5046882;28;19928;-77
2022/10/14 10:40:57;;;;;;;;;;;16.80;90.50;;;;;;5044290;28;19928;-80
2022/10/14 10:43:42;;;;;;;;;;;16.80;90.40;;;;;;5033718;28;19927;-76
2022/10/14 10:46:27;;;;;;;;;;;16.80;90.30;;;;;;5020950;28;20165;-79
2022/10/14 10:48:56;;;;;;;;;;;16.80;90.50;;;;;;5023083;28;19939;-77
2022/10/14 10:51:26;;;;;;;;;;;16.70;90.70;;;;;;5023524;28;19921;-77
2022/10/14 10:54:04;;;;;;;;;;;16.60;90.80;;;;;;5018502;28;20355;-77
2022/10/14 10:56:51;;;;;;;;;;;16.60;91.30;;;;;;5017351;28;20023;-77
2022/10/14 10:59:21;;;;;;;;;;;16.40;91.60;;;;;;5019938;28;20380;-77
2022/10/14 11:01:59;;;;;;;;;;;16.30;91.80;;;;;;5020629;28;19921;-77
2022/10/14 11:04:33;;;;;;;;;;;16.10;92.20;;;;;;5019024;28;20006;-76
2022/10/14 11:13:06;;;;;;;;;;;16.10;91.90;;;;;;5024730;28;20463;-79
2022/10/14 11:15:44;;;;;;;;;;;16.00;92.20;;;;;;5022836;28;19916;-79
2022/10/14 11:18:11;;;;;;;;;;;15.90;92.40;;;;;;5024271;28;19925;-79
2022/10/14 11:20:43;;;;;;;;;;;15.90;92.40;;;;;;5038396;28;19953;-78
2022/10/14 11:23:33;;;;;;;;;;;15.80;92.10;;;;;;5042848;28;19920;-79
2022/10/14 11:26:03;;;;;;;;;;;15.90;91.70;;;;;;5043004;28;19925;-78
2022/10/14 11:28:35;;;;;;;;;;;15.90;91.70;;;;;;5046406;28;19927;-79
2022/10/14 11:31:22;;;;;;;;;;;15.90;91.90;;;;;;5045885;28;19924;-78
2022/10/14 11:33:49;;;;;;;;;;;15.80;92.00;;;;;;5039888;28;20088;-79
2022/10/14 11:36:16;;;;;;;;;;;15.80;92.20;;;;;;5041457;28;19956;-78
2022/10/14 11:38:53;;;;;;;;;;;15.70;92.30;;;;;;5040224;28;19913;-79
2022/10/14 11:41:29;;;;;;;;;;;15.70;92.40;;;;;;5042609;28;19921;-78
2022/10/14 11:44:13;;;;;;;;;;;15.60;92.40;;;;;;5043991;28;19917;-79
2022/10/14 11:46:44;;;;;;;;;;;15.60;92.40;;;;;;5041903;28;20010;-78
2022/10/14 11:49:28;;;;;;;;;;;15.60;92.50;;;;;;5038082;28;19921;-78
2022/10/14 11:51:56;;;;;;;;;;;15.60;92.50;;;;;;5041785;28;19917;-78
2022/10/14 11:54:27;;;;;;;;;;;15.60;92.50;;;;;;5040962;28;19928;-78
2022/10/14 11:57:03;;;;;;;;;;;15.50;92.70;;;;;;5048419;28;19970;-78
2022/10/14 11:59:45;;;;;;;;;;;15.50;93.00;;;;;;5035869;28;19932;-79
2022/10/14 12:02:14;;;;;;;;;;;15.40;93.20;;;;;;5044772;28;20007;-78
2022/10/14 12:04:44;;;;;;;;;;;15.30;93.90;;;;;;5043667;28;20699;-79
2022/10/14 12:07:16;;;;;;;;;;;15.30;93.90;;;;;;5043152;28;19917;-80
2022/10/14 12:09:54;;;;;;;;;;;15.20;94.50;;;;;;5044997;28;20012;-79
2022/10/14 12:12:24;;;;;;;;;;;15.20;95.10;;;;;;5043547;28;19928;-78
2022/10/14 12:14:55;;;;;;;;;;;15.10;94.90;;;;;;5044296;28;20440;-77
2022/10/14 12:17:31;;;;;;;;;;;15.00;94.30;;;;;;5043739;28;19921;-77
2022/10/14 12:20:01;;;;;;;;;;;15.00;94.60;;;;;;5044842;28;19923;-79
2022/10/14 12:22:28;;;;;;;;;;;14.90;94.80;;;;;;5043218;28;19931;-79
2022/10/14 12:25:04;;;;;;;;;;;14.80;95.40;;;;;;5044164;28;20283;-76
2022/10/14 12:27:31;;;;;;;;;;;14.70;95.80;;;;;;5040640;28;19999;-76
2022/10/14 12:29:58;;;;;;;;;;;14.60;95.90;;;;;;5043168;28;19917;-76
2022/10/14 12:32:29;;;;;;;;;;;14.60;96.10;;;;;;5042079;28;19912;-77
2022/10/14 12:35:02;;;;;;;;;;;14.50;96.40;;;;;;5048034;28;20008;-78
2022/10/14 12:37:36;;;;;;;;;;;14.50;96.20;;;;;;5042063;28;20333;-78
2022/10/14 12:40:06;;;;;;;;;;;14.50;96.60;;;;;;5044271;28;20532;-77
2022/10/14 12:42:34;;;;;;;;;;;14.50;96.80;;;;;;5037213;28;20375;-78
2022/10/14 12:45:13;;;;;;;;;;;14.50;96.50;;;;;;5041400;28;20007;-76
2022/10/14 12:47:40;;;;;;;;;;;14.50;96.70;;;;;;5040824;28;20020;-79
2022/10/14 12:50:17;;;;;;;;;;;14.50;96.30;;;;;;5040226;28;19917;-78
2022/10/14 12:52:54;;;;;;;;;;;14.50;95.70;;;;;;5039930;28;19920;-79
2022/10/14 12:55:23;;;;;;;;;;;14.60;95.80;;;;;;5041501;28;20000;-78
2022/10/14 12:57:54;;;;;;;;;;;14.60;96.00;;;;;;5043589;28;19929;-77
2022/10/14 13:00:20;;;;;;;;;;;14.50;96.00;;;;;;5040775;28;20312;-78
2022/10/14 13:02:48;;;;;;;;;;;14.40;96.00;;;;;;5040110;28;19920;-79
2022/10/14 13:05:33;;;;;;;;;;;14.40;96.10;;;;;;5045139;28;19921;-79
2022/10/14 13:08:09;;;;;;;;;;;14.30;96.60;;;;;;5045013;28;19920;-78
2022/10/14 13:10:39;;;;;;;;;;;14.30;96.40;;;;;;5040073;28;20323;-78
2022/10/14 13:13:24;;;;;;;;;;;14.30;96.30;;;;;;5040502;28;19950;-79
2022/10/14 13:15:51;;;;;;;;;;;14.30;96.20;;;;;;5042321;28;19932;-79
2022/10/14 13:18:36;;;;;;;;;;;14.40;96.00;;;;;;5034363;28;19928;-79
2022/10/14 13:21:03;;;;;;;;;;;14.40;96.00;;;;;;5042235;28;19913;-77
2022/10/14 13:23:30;;;;;;;;;;;14.40;96.00;;;;;;5047197;28;19913;-78
2022/10/14 13:26:05;;;;;;;;;;;14.40;95.90;;;;;;5042636;28;19931;-76
2022/10/14 13:28:37;;;;;;;;;;;14.40;96.10;;;;;;5042316;28;19921;-77
2022/10/14 13:31:30;;;;;;;;;;;14.30;96.20;;;;;;5044357;28;19999;-77
2022/10/14 13:34:08;;;;;;;;;;;14.30;96.60;;;;;;5036795;28;20337;-78
2022/10/14 13:36:42;;;;;;;;;;;14.30;96.90;;;;;;5041028;28;20019;-77
2022/10/14 13:39:09;;;;;;;;;;;14.20;96.90;;;;;;5042891;28;19921;-78
2022/10/14 13:41:36;;;;;;;;;;;14.10;96.80;;;;;;5039580;28;19917;-77
2022/10/14 13:44:03;;;;;;;;;;;14.00;97.00;;;;;;5040911;28;19912;-77
2022/10/14 13:46:42;;;;;;;;;;;14.00;98.20;;;;;;5041056;28;20559;-77
2022/10/14 13:49:14;;;;;;;;;;;14.00;98.50;;;;;;5041493;28;19927;-79
2022/10/14 13:51:40;;;;;;;;;;;13.90;98.70;;;;;;5040412;28;19921;-78
2022/10/14 13:54:18;;;;;;;;;;;13.80;99.40;;;;;;5042184;28;19912;-78
2022/10/14 13:56:56;;;;;;;;;;;13.70;99.50;;;;;;5042199;28;19936;-78
2022/10/14 13:59:23;;;;;;;;;;;13.60;99.90;;;;;;5042709;28;19921;-78
2022/10/14 14:01:53;;;;;;;;;;;13.60;99.90;;;;;;5046993;28;20390;-78
2022/10/14 14:04:23;;;;;;;;;;;13.50;99.90;;;;;;5038738;28;19928;-79
2022/10/14 14:06:50;;;;;;;;;;;13.50;99.90;;;;;;5043185;28;20378;-78
2022/10/14 14:09:22;;;;;;;;;;;13.40;99.90;;;;;;5042670;28;19913;-78
2022/10/14 14:11:50;;;;;;;;;;;13.40;99.90;;;;;;5041975;28;20390;-77
2022/10/14 14:14:19;;;;;;;;;;;13.30;99.90;;;;;;5038732;28;20051;-77
2022/10/14 14:16:57;;;;;;;;;;;13.30;99.90;;;;;;5044383;28;20244;-78
2022/10/14 14:19:27;;;;;;;;;;;13.10;99.90;;;;;;5039397;28;19955;-79
2022/10/14 14:22:17;;;;;;;;;;;13.00;99.90;;;;;;5038234;28;19974;-77
2022/10/14 14:24:45;;;;;;;;;;;13.00;99.90;;;;;;5025347;28;19921;-79
2022/10/14 14:27:13;;;;;;;;;;;12.90;99.90;;;;;;5024843;28;19917;-78
2022/10/14 14:29:41;;;;;;;;;;;12.90;99.90;;;;;;5050946;28;19920;-80
2022/10/14 14:32:12;;;;;;;;;;;12.80;99.90;;;;;;5045709;28;19913;-78
2022/10/14 14:34:42;;;;;;;;;;;12.80;99.90;;;;;;5049003;28;20019;-77
2022/10/14 14:37:13;;;;;;;;;;;12.80;99.90;;;;;;5047816;28;19986;-79